sensor_id;sensor_type;location;lat;lon;timestamp;pressure;altitude;pressure_sealevel;temperature;humidity
46009;BME280;39597;51.438;7.006;2022-10-15T00:02:05;99328.44;;;12.97;100.00
46009;BME280;39597;51.438;7.006;2022-10-15T00:04:31;99321.38;;;12.96;100.00
46009;BME280;39597;51.438;7.006;2022-10-15T00:06:57;99325.66;;;12.93;100.00
46009;BME280;39597;51.438;7.006;2022-10-15T00:09:23;99315.84;;;12.92;100.00
46009;BME280;39597;51.438;7.006;2022-10-15T00:11:48;99311.13;;;12.89;100.00
46009;BME280;39597;51.438;7.006;2022-10-15T00:14:13;99315.03;;;12.88;100.00
46009;BME280;39597;51.438;7.006;2022-10-15T00:16:39;99319.28;;;12.86;100.00
46009;BME280;39597;51.438;7.006;2022-10-15T00:19:04;99314.56;;;12.83;100.00
46009;BME280;39597;51.438;7.006;2022-10-15T00:21:30;99317.25;;;12.79;100.00
46009;BME280;39597;51.438;7.006;2022-10-15T00:23:55;99308.66;;;12.77;100.00
46009;BME280;39597;51.438;7.006;2022-10-15T00:26:24;99311.72;;;12.76;100.00
46009;BME280;39597;51.438;7.006;2022-10-15T00:28:52;99307.03;;;12.76;100.00
46009;BME280;39597;51.438;7.006;2022-10-15T00:31:18;99303.88;;;12.74;100.00
46009;BME280;39597;51.438;7.006;2022-10-15T00:33:48;99302.31;;;12.73;100.00
46009;BME280;39597;51.438;7.006;2022-10-15T00:36:16;99306.22;;;12.72;100.00
46009;BME280;39597;51.438;7.006;2022-10-15T00:38:42;99306.22;;;12.72;100.00
46009;BME280;39597;51.438;7.006;2022-10-15T00:41:13;99305.41;;;12.72;100.00
46009;BME280;39597;51.438;7.006;2022-10-15T00:43:40;99303.06;;;12.70;100.00
46009;BME280;39597;51.438;7.006;2022-10-15T00:48:45;99303.00;;;12.67;100.00
46009;BME280;39597;51.438;7.006;2022-10-15T00:51:15;99310.41;;;12.66;100.00
46009;BME280;39597;51.438;7.006;2022-10-15T00:53:42;99304.97;;;12.66;100.00
46009;BME280;39597;51.438;7.006;2022-10-15T00:56:07;99312.72;;;12.64;100.00
46009;BME280;39597;51.438;7.006;2022-10-15T00:58:34;99306.91;;;12.65;100.00
46009;BME280;39597;51.438;7.006;2022-10-15T01:01:00;99308.81;;;12.61;100.00
46009;BME280;39597;51.438;7.006;2022-10-15T01:03:25;99308.53;;;12.70;100.00
46009;BME280;39597;51.438;7.006;2022-10-15T01:05:51;99299.91;;;12.68;100.00
46009;BME280;39597;51.438;7.006;2022-10-15T01:08:17;99302.09;;;12.59;100.00
46009;BME280;39597;51.438;7.006;2022-10-15T01:13:53;99310.94;;;12.49;100.00
46009;BME280;39597;51.438;7.006;2022-10-15T01:16:30;99305.81;;;12.44;100.00
46009;BME280;39597;51.438;7.006;2022-10-15T01:19:05;99312.38;;;12.43;100.00
46009;BME280;39597;51.438;7.006;2022-10-15T01:21:47;99303.34;;;12.39;100.00
46009;BME280;39597;51.438;7.006;2022-10-15T01:24:39;99309.56;;;12.35;100.00
46009;BME280;39597;51.438;7.006;2022-10-15T01:40:54;99321.88;;;12.26;100.00
46009;BME280;39597;51.438;7.006;2022-10-15T01:46:13;99328.19;;;12.30;100.00
46009;BME280;39597;51.438;7.006;2022-10-15T01:48:41;99322.22;;;12.24;100.00
46009;BME280;39597;51.438;7.006;2022-10-15T01:51:09;99319.13;;;12.26;100.00
46009;BME280;39597;51.438;7.006;2022-10-15T01:53:37;99315.34;;;12.30;100.00
46009;BME280;39597;51.438;7.006;2022-10-15T01:56:07;99314.19;;;12.31;100.00
46009;BME280;39597;51.438;7.006;2022-10-15T01:58:36;99313.75;;;12.29;100.00
46009;BME280;39597;51.438;7.006;2022-10-15T02:01:04;99314.84;;;12.25;100.00
46009;BME280;39597;51.438;7.006;2022-10-15T02:03:29;99313.44;;;12.34;100.00
46009;BME280;39597;51.438;7.006;2022-10-15T02:06:06;99311.31;;;12.24;100.00
46009;BME280;39597;51.438;7.006;2022-10-15T02:08:47;99298.34;;;12.18;100.00
46009;BME280;39597;51.438;7.006;2022-10-15T02:11:16;99306.13;;;12.16;100.00
46009;BME280;39597;51.438;7.006;2022-10-15T02:13:49;99299.88;;;12.15;100.00
46009;BME280;39597;51.438;7.006;2022-10-15T02:16:30;99295.94;;;12.13;100.00
46009;BME280;39597;51.438;7.006;2022-10-15T02:19:04;99288.16;;;12.15;100.00
46009;BME280;39597;51.438;7.006;2022-10-15T02:24:26;99295.56;;;12.14;100.00
46009;BME280;39597;51.438;7.006;2022-10-15T02:26:56;99293.22;;;12.13;100.00
46009;BME280;39597;51.438;7.006;2022-10-15T02:29:26;99291.63;;;12.12;100.00
46009;BME280;39597;51.438;7.006;2022-10-15T02:31:55;99289.31;;;12.14;100.00
46009;BME280;39597;51.438;7.006;2022-10-15T02:34:25;99285.38;;;12.11;100.00
46009;BME280;39597;51.438;7.006;2022-10-15T02:36:52;99281.50;;;12.12;100.00
46009;BME280;39597;51.438;7.006;2022-10-15T02:39:21;99281.50;;;12.12;100.00
46009;BME280;39597;51.438;7.006;2022-10-15T02:41:49;99279.56;;;12.13;100.00
46009;BME280;39597;51.438;7.006;2022-10-15T02:44:15;99288.16;;;12.15;100.00
46009;BME280;39597;51.438;7.006;2022-10-15T02:46:40;99289.38;;;12.17;100.00
46009;BME280;39597;51.438;7.006;2022-10-15T02:49:06;99298.31;;;12.14;100.00
46009;BME280;39597;51.438;7.006;2022-10-15T02:51:34;99307.69;;;12.17;100.00
46009;BME280;39597;51.438;7.006;2022-10-15T02:54:02;99307.63;;;12.13;100.00
46009;BME280;39597;51.438;7.006;2022-10-15T02:56:28;99306.34;;;12.07;100.00
46009;BME280;39597;51.438;7.006;2022-10-15T02:58:54;99299.75;;;12.08;100.00
46009;BME280;39597;51.438;7.006;2022-10-15T03:01:20;99290.34;;;12.05;100.00
46009;BME280;39597;51.438;7.006;2022-10-15T03:03:47;99291.88;;;12.03;100.00
46009;BME280;39597;51.438;7.006;2022-10-15T03:06:13;99283.25;;;12.01;100.00
46009;BME280;39597;51.438;7.006;2022-10-15T03:08:40;99287.09;;;11.96;100.00
46009;BME280;39597;51.438;7.006;2022-10-15T03:11:09;99283.16;;;11.94;100.00
46009;BME280;39597;51.438;7.006;2022-10-15T03:13:35;99282.69;;;11.92;100.00
46009;BME280;39597;51.438;7.006;2022-10-15T03:16:06;99290.47;;;11.90;100.00
46009;BME280;39597;51.438;7.006;2022-10-15T03:18:32;99287.69;;;11.86;100.00
46009;BME280;39597;51.438;7.006;2022-10-15T03:20:58;99290.78;;;11.85;100.00
46009;BME280;39597;51.438;7.006;2022-10-15T03:23:23;99285.25;;;11.81;100.00
46009;BME280;39597;51.438;7.006;2022-10-15T03:25:49;99285.25;;;11.81;100.00
46009;BME280;39597;51.438;7.006;2022-10-15T03:28:15;99277.78;;;11.78;100.00
46009;BME280;39597;51.438;7.006;2022-10-15T03:30:41;99278.16;;;11.77;100.00
46009;BME280;39597;51.438;7.006;2022-10-15T03:33:06;99276.44;;;11.91;100.00
46009;BME280;39597;51.438;7.006;2022-10-15T03:35:32;99268.47;;;11.79;100.00
46009;BME280;39597;51.438;7.006;2022-10-15T03:37:58;99263.94;;;12.10;100.00
46009;BME280;39597;51.438;7.006;2022-10-15T03:40:24;99261.66;;;11.92;100.00
46009;BME280;39597;51.438;7.006;2022-10-15T03:42:50;99259.97;;;12.07;100.00
46009;BME280;39597;51.438;7.006;2022-10-15T03:45:16;99253.81;;;12.10;100.00
46009;BME280;39597;51.438;7.006;2022-10-15T03:47:42;99252.94;;;12.06;100.00
46009;BME280;39597;51.438;7.006;2022-10-15T03:50:08;99256.44;;;12.29;100.00
46009;BME280;39597;51.438;7.006;2022-10-15T03:52:35;99251.13;;;12.40;100.00
46009;BME280;39597;51.438;7.006;2022-10-15T03:55:00;99256.69;;;12.21;100.00
46009;BME280;39597;51.438;7.006;2022-10-15T03:57:26;99258.03;;;12.08;100.00
46009;BME280;39597;51.438;7.006;2022-10-15T03:59:51;99249.53;;;12.13;100.00
46009;BME280;39597;51.438;7.006;2022-10-15T04:02:16;99254.28;;;12.16;100.00
46009;BME280;39597;51.438;7.006;2022-10-15T04:04:42;99253.84;;;11.91;100.00
46009;BME280;39597;51.438;7.006;2022-10-15T04:07:07;99253.16;;;12.20;100.00
46009;BME280;39597;51.438;7.006;2022-10-15T04:09:34;99259.09;;;12.26;100.00
46009;BME280;39597;51.438;7.006;2022-10-15T04:11:59;99252.69;;;12.15;100.00
46009;BME280;39597;51.438;7.006;2022-10-15T04:14:24;99257.31;;;12.11;100.00
46009;BME280;39597;51.438;7.006;2022-10-15T04:16:50;99266.75;;;12.17;100.00
46009;BME280;39597;51.438;7.006;2022-10-15T04:19:15;99274.03;;;12.09;100.00
46009;BME280;39597;51.438;7.006;2022-10-15T04:21:40;99274.22;;;11.97;100.00
46009;BME280;39597;51.438;7.006;2022-10-15T04:24:05;99272.09;;;11.87;100.00
46009;BME280;39597;51.438;7.006;2022-10-15T04:26:31;99267.38;;;11.84;100.00
46009;BME280;39597;51.438;7.006;2022-10-15T04:28:56;99266.09;;;11.78;100.00
46009;BME280;39597;51.438;7.006;2022-10-15T04:31:22;99271.44;;;11.93;100.00
46009;BME280;39597;51.438;7.006;2022-10-15T04:33:47;99272.94;;;12.14;100.00
46009;BME280;39597;51.438;7.006;2022-10-15T04:36:13;99268.34;;;11.95;100.00
46009;BME280;39597;51.438;7.006;2022-10-15T04:38:39;99266.88;;;12.01;100.00
46009;BME280;39597;51.438;7.006;2022-10-15T04:41:09;99275.25;;;11.89;100.00
46009;BME280;39597;51.438;7.006;2022-10-15T04:43:35;99270.53;;;11.86;100.00
46009;BME280;39597;51.438;7.006;2022-10-15T04:46:07;99279.84;;;11.85;100.00
46009;BME280;39597;51.438;7.006;2022-10-15T04:48:34;99272.03;;;11.83;100.00
46009;BME280;39597;51.438;7.006;2022-10-15T04:51:26;99268.94;;;11.85;100.00
46009;BME280;39597;51.438;7.006;2022-10-15T04:53:51;99265.84;;;11.86;100.00
46009;BME280;39597;51.438;7.006;2022-10-15T04:56:19;99265.06;;;11.86;100.00
46009;BME280;39597;51.438;7.006;2022-10-15T04:58:46;99269.78;;;11.89;100.00
46009;BME280;39597;51.438;7.006;2022-10-15T05:01:14;99268.28;;;11.91;100.00
46009;BME280;39597;51.438;7.006;2022-10-15T05:03:42;99268.28;;;11.91;100.00
46009;BME280;39597;51.438;7.006;2022-10-15T05:06:10;99260.88;;;11.92;100.00
46009;BME280;39597;51.438;7.006;2022-10-15T05:08:37;99266.34;;;11.92;100.00
46009;BME280;39597;51.438;7.006;2022-10-15T05:11:26;99260.88;;;11.92;100.00
46009;BME280;39597;51.438;7.006;2022-10-15T05:13:54;99251.13;;;11.91;100.00
46009;BME280;39597;51.438;7.006;2022-10-15T05:16:24;99249.97;;;11.92;100.00
46009;BME280;39597;51.438;7.006;2022-10-15T05:18:56;99244.50;;;11.92;100.00
46009;BME280;39597;51.438;7.006;2022-10-15T05:21:23;99244.09;;;11.90;100.00
46009;BME280;39597;51.438;7.006;2022-10-15T05:23:49;99251.13;;;11.91;100.00
46009;BME280;39597;51.438;7.006;2022-10-15T05:26:17;99242.16;;;11.90;100.00
46009;BME280;39597;51.438;7.006;2022-10-15T05:28:43;99238.63;;;11.90;100.00
46009;BME280;39597;51.438;7.006;2022-10-15T05:31:14;99241.78;;;11.92;100.00
46009;BME280;39597;51.438;7.006;2022-10-15T05:33:39;99244.09;;;11.90;100.00
46009;BME280;39597;51.438;7.006;2022-10-15T05:38:57;99258.03;;;11.85;100.00
46009;BME280;39597;51.438;7.006;2022-10-15T05:41:23;99255.69;;;11.83;100.00
46009;BME280;39597;51.438;7.006;2022-10-15T05:43:50;99248.66;;;11.82;100.00
46009;BME280;39597;51.438;7.006;2022-10-15T05:46:18;99257.19;;;11.81;100.00
46009;BME280;39597;51.438;7.006;2022-10-15T05:48:55;99255.63;;;11.80;100.00
46009;BME280;39597;51.438;7.006;2022-10-15T05:51:21;99259.13;;;11.80;100.00
46009;BME280;39597;51.438;7.006;2022-10-15T05:53:52;99256.78;;;11.79;100.00
46009;BME280;39597;51.438;7.006;2022-10-15T05:56:18;99263.34;;;11.78;100.00
46009;BME280;39597;51.438;7.006;2022-10-15T05:58:43;99269.97;;;11.77;100.00
46009;BME280;39597;51.438;7.006;2022-10-15T06:01:10;99271.09;;;11.75;100.00
46009;BME280;39597;51.438;7.006;2022-10-15T06:03:36;99266.59;;;11.83;100.00
46009;BME280;39597;51.438;7.006;2022-10-15T06:06:02;99266.59;;;11.83;100.00
46009;BME280;39597;51.438;7.006;2022-10-15T06:08:28;99271.69;;;11.85;100.00
46009;BME280;39597;51.438;7.006;2022-10-15T06:11:01;99269.75;;;11.85;100.00
46009;BME280;39597;51.438;7.006;2022-10-15T06:13:27;99262.72;;;11.84;100.00
46009;BME280;39597;51.438;7.006;2022-10-15T06:15:52;99268.16;;;11.84;100.00
46009;BME280;39597;51.438;7.006;2022-10-15T06:18:18;99280.28;;;11.87;100.00
46009;BME280;39597;51.438;7.006;2022-10-15T06:20:51;99272.53;;;11.89;100.00
46009;BME280;39597;51.438;7.006;2022-10-15T06:23:17;99277.97;;;11.89;100.00
46009;BME280;39597;51.438;7.006;2022-10-15T06:25:43;99285.38;;;11.88;100.00
46009;BME280;39597;51.438;7.006;2022-10-15T06:28:08;99278.41;;;11.91;100.00
46009;BME280;39597;51.438;7.006;2022-10-15T06:30:34;99280.69;;;11.89;100.00
46009;BME280;39597;51.438;7.006;2022-10-15T06:33:01;99282.28;;;11.90;100.00
46009;BME280;39597;51.438;7.006;2022-10-15T06:35:26;99285.88;;;11.94;100.00
46009;BME280;39597;51.438;7.006;2022-10-15T06:37:55;99291.75;;;11.96;100.00
46009;BME280;39597;51.438;7.006;2022-10-15T06:40:20;99291.38;;;11.97;100.00
46009;BME280;39597;51.438;7.006;2022-10-15T06:42:45;99290.28;;;12.02;100.00
46009;BME280;39597;51.438;7.006;2022-10-15T06:45:11;99298.94;;;12.08;100.00
46009;BME280;39597;51.438;7.006;2022-10-15T06:47:39;99294.72;;;12.10;100.00
46009;BME280;39597;51.438;7.006;2022-10-15T06:50:05;99300.59;;;12.12;100.00
46009;BME280;39597;51.438;7.006;2022-10-15T06:52:31;99294.41;;;12.15;100.00
46009;BME280;39597;51.438;7.006;2022-10-15T06:54:57;99302.25;;;12.17;100.00
46009;BME280;39597;51.438;7.006;2022-10-15T06:57:22;99296.88;;;12.24;100.00
46009;BME280;39597;51.438;7.006;2022-10-15T06:59:50;99303.13;;;12.24;100.00
46009;BME280;39597;51.438;7.006;2022-10-15T07:02:15;99300.03;;;12.26;100.00
46009;BME280;39597;51.438;7.006;2022-10-15T07:04:43;99302.41;;;12.27;100.00
46009;BME280;39597;51.438;7.006;2022-10-15T07:07:09;99300.13;;;12.29;100.00
46009;BME280;39597;51.438;7.006;2022-10-15T07:09:34;99304.00;;;12.28;100.00
46009;BME280;39597;51.438;7.006;2022-10-15T07:12:00;99309.88;;;12.30;100.00
46009;BME280;39597;51.438;7.006;2022-10-15T07:14:26;99305.56;;;12.29;100.00
46009;BME280;39597;51.438;7.006;2022-10-15T07:16:51;99304.84;;;12.32;100.00
46009;BME280;39597;51.438;7.006;2022-10-15T07:19:16;99301.31;;;12.32;100.00
46009;BME280;39597;51.438;7.006;2022-10-15T07:21:42;99302.09;;;12.32;100.00
46009;BME280;39597;51.438;7.006;2022-10-15T07:24:10;99304.09;;;12.35;100.00
46009;BME280;39597;51.438;7.006;2022-10-15T07:26:38;99313.50;;;12.38;100.00
46009;BME280;39597;51.438;7.006;2022-10-15T07:29:05;99312.84;;;12.45;100.00
46009;BME280;39597;51.438;7.006;2022-10-15T07:31:30;99312.84;;;12.45;100.00
46009;BME280;39597;51.438;7.006;2022-10-15T07:33:56;99304.31;;;12.50;100.00
46009;BME280;39597;51.438;7.006;2022-10-15T07:36:21;99314.13;;;12.54;100.00
46009;BME280;39597;51.438;7.006;2022-10-15T07:38:47;99309.84;;;12.53;100.00
46009;BME280;39597;51.438;7.006;2022-10-15T07:41:12;99311.41;;;12.54;100.00
46009;BME280;39597;51.438;7.006;2022-10-15T07:43:38;99308.09;;;12.68;100.00
46009;BME280;39597;51.438;7.006;2022-10-15T07:46:03;99312.78;;;12.68;100.00
46009;BME280;39597;51.438;7.006;2022-10-15T07:48:29;99309.25;;;12.67;100.00
46009;BME280;39597;51.438;7.006;2022-10-15T07:50:59;99309.34;;;12.74;100.00
46009;BME280;39597;51.438;7.006;2022-10-15T07:53:25;99313.25;;;12.73;100.00
46009;BME280;39597;51.438;7.006;2022-10-15T07:55:51;99304.63;;;12.71;100.00
46009;BME280;39597;51.438;7.006;2022-10-15T07:58:17;99308.16;;;12.72;100.00
46009;BME280;39597;51.438;7.006;2022-10-15T08:00:43;99299.97;;;12.72;100.00
46009;BME280;39597;51.438;7.006;2022-10-15T08:03:11;99304.22;;;12.95;100.00
46009;BME280;39597;51.438;7.006;2022-10-15T08:05:37;99290.47;;;12.92;100.00
46009;BME280;39597;51.438;7.006;2022-10-15T08:08:02;99290.41;;;13.15;100.00
46009;BME280;39597;51.438;7.006;2022-10-15T08:10:28;99290.50;;;13.22;100.00
46009;BME280;39597;51.438;7.006;2022-10-15T08:12:56;99277.72;;;13.30;100.00
46009;BME280;39597;51.438;7.006;2022-10-15T08:15:21;99282.84;;;13.35;100.00
46009;BME280;39597;51.438;7.006;2022-10-15T08:17:47;99270.78;;;13.39;100.00
46009;BME280;39597;51.438;7.006;2022-10-15T08:20:14;99275.16;;;13.44;100.00
46009;BME280;39597;51.438;7.006;2022-10-15T08:22:39;99272.13;;;13.52;100.00
46009;BME280;39597;51.438;7.006;2022-10-15T08:25:05;99275.97;;;13.48;100.00
46009;BME280;39597;51.438;7.006;2022-10-15T08:27:31;99282.28;;;13.55;100.00
46009;BME280;39597;51.438;7.006;2022-10-15T08:29:56;99283.81;;;13.49;100.00
46009;BME280;39597;51.438;7.006;2022-10-15T08:32:21;99302.63;;;13.58;100.00
46009;BME280;39597;51.438;7.006;2022-10-15T08:34:47;99289.59;;;13.78;100.00
46009;BME280;39597;51.438;7.006;2022-10-15T08:37:12;99283.00;;;13.86;100.00
46009;BME280;39597;51.438;7.006;2022-10-15T08:39:37;99274.19;;;14.07;100.00
46009;BME280;39597;51.438;7.006;2022-10-15T08:42:14;99281.56;;;13.99;100.00
46009;BME280;39597;51.438;7.006;2022-10-15T08:44:45;99292.25;;;14.11;100.00
46009;BME280;39597;51.438;7.006;2022-10-15T08:47:27;99286.81;;;14.19;100.00
46009;BME280;39597;51.438;7.006;2022-10-15T08:50:12;99283.03;;;14.37;99.76
46009;BME280;39597;51.438;7.006;2022-10-15T08:52:44;99288.66;;;14.52;97.77
46009;BME280;39597;51.438;7.006;2022-10-15T08:55:34;99287.03;;;14.43;98.29
46009;BME280;39597;51.438;7.006;2022-10-15T09:06:23;99280.81;;;14.50;97.96
46009;BME280;39597;51.438;7.006;2022-10-15T09:09:05;99276.84;;;14.44;96.54
46009;BME280;39597;51.438;7.006;2022-10-15T09:11:40;99274.56;;;14.53;95.14
46009;BME280;39597;51.438;7.006;2022-10-15T09:14:13;99266.00;;;14.58;94.97
46009;BME280;39597;51.438;7.006;2022-10-15T09:16:42;99263.63;;;14.53;95.66
46009;BME280;39597;51.438;7.006;2022-10-15T09:19:23;99259.81;;;14.68;94.88
46009;BME280;39597;51.438;7.006;2022-10-15T09:21:51;99256.69;;;14.73;94.08
46009;BME280;39597;51.438;7.006;2022-10-15T09:24:22;99255.91;;;14.69;94.48
46009;BME280;39597;51.438;7.006;2022-10-15T09:29:59;99243.88;;;14.92;93.15
46009;BME280;39597;51.438;7.006;2022-10-15T09:32:42;99249.03;;;15.11;92.41
46009;BME280;39597;51.438;7.006;2022-10-15T09:37:47;99235.75;;;15.13;92.76
46009;BME280;39597;51.438;7.006;2022-10-15T09:43:00;99237.03;;;15.55;90.06
46009;BME280;39597;51.438;7.006;2022-10-15T09:45:26;99230.75;;;15.47;89.81
46009;BME280;39597;51.438;7.006;2022-10-15T09:47:55;99246.06;;;15.59;89.65
46009;BME280;39597;51.438;7.006;2022-10-15T09:50:21;99235.06;;;15.52;89.00
46009;BME280;39597;51.438;7.006;2022-10-15T09:57:54;99235.03;;;15.34;89.47
46009;BME280;39597;51.438;7.006;2022-10-15T10:00:21;99236.56;;;15.24;90.98
46009;BME280;39597;51.438;7.006;2022-10-15T10:03:03;99235.81;;;15.34;90.53
46009;BME280;39597;51.438;7.006;2022-10-15T10:05:32;99233.81;;;15.28;90.76
46009;BME280;39597;51.438;7.006;2022-10-15T10:08:09;99229.94;;;15.32;90.95
46009;BME280;39597;51.438;7.006;2022-10-15T10:10:36;99227.16;;;15.18;92.54
46009;BME280;39597;51.438;7.006;2022-10-15T10:13:06;99220.09;;;15.28;92.27
46009;BME280;39597;51.438;7.006;2022-10-15T10:15:40;99218.56;;;15.34;93.63
46009;BME280;39597;51.438;7.006;2022-10-15T10:18:17;99213.88;;;15.34;93.90
46009;BME280;39597;51.438;7.006;2022-10-15T10:20:55;99208.38;;;15.42;93.31
46009;BME280;39597;51.438;7.006;2022-10-15T10:23:35;99198.19;;;15.35;92.70
46009;BME280;39597;51.438;7.006;2022-10-15T10:26:03;99215.00;;;15.26;94.15
46009;BME280;39597;51.438;7.006;2022-10-15T10:28:45;99213.88;;;15.38;93.39
46009;BME280;39597;51.438;7.006;2022-10-15T10:31:13;99209.16;;;15.35;93.68
46009;BME280;39597;51.438;7.006;2022-10-15T10:36:06;99213.09;;;15.38;94.07
46009;BME280;39597;51.438;7.006;2022-10-15T10:38:43;99212.34;;;15.48;93.54
46009;BME280;39597;51.438;7.006;2022-10-15T10:41:18;99217.03;;;15.47;94.13
46009;BME280;39597;51.438;7.006;2022-10-15T10:43:54;99195.06;;;15.37;96.10
46009;BME280;39597;51.438;7.006;2022-10-15T10:46:21;99199.38;;;15.38;96.97
46009;BME280;39597;51.438;7.006;2022-10-15T10:48:52;99196.63;;;15.38;97.12
46009;BME280;39597;51.438;7.006;2022-10-15T10:51:20;99194.69;;;15.34;96.97
46009;BME280;39597;51.438;7.006;2022-10-15T10:54:09;99187.94;;;15.07;100.00
46009;BME280;39597;51.438;7.006;2022-10-15T10:56:39;99197.28;;;14.92;100.00
46009;BME280;39597;51.438;7.006;2022-10-15T10:59:17;99196.09;;;14.86;100.00
46009;BME280;39597;51.438;7.006;2022-10-15T11:01:44;99198.81;;;14.86;100.00
46009;BME280;39597;51.438;7.006;2022-10-15T11:04:13;99195.69;;;14.80;100.00
46009;BME280;39597;51.438;7.006;2022-10-15T11:06:54;99196.41;;;14.73;100.00
46009;BME280;39597;51.438;7.006;2022-10-15T11:09:46;99192.91;;;14.77;100.00
46009;BME280;39597;51.438;7.006;2022-10-15T11:17:49;99186.34;;;14.95;100.00
46009;BME280;39597;51.438;7.006;2022-10-15T11:20:27;99193.00;;;14.98;100.00
46009;BME280;39597;51.438;7.006;2022-10-15T11:23:07;99191.84;;;15.02;100.00
46009;BME280;39597;51.438;7.006;2022-10-15T11:34:32;99177.34;;;14.98;100.00
46009;BME280;39597;51.438;7.006;2022-10-15T11:45:23;99163.25;;;14.96;100.00
46009;BME280;39597;51.438;7.006;2022-10-15T11:48:02;99171.47;;;14.96;100.00
46009;BME280;39597;51.438;7.006;2022-10-15T11:56:01;99153.47;;;14.99;100.00
46009;BME280;39597;51.438;7.006;2022-10-15T11:58:49;99157.31;;;14.87;100.00
46009;BME280;39597;51.438;7.006;2022-10-15T12:01:28;99165.16;;;14.92;100.00
46009;BME280;39597;51.438;7.006;2022-10-15T12:04:01;99159.72;;;14.99;100.00
46009;BME280;39597;51.438;7.006;2022-10-15T12:06:33;99152.28;;;15.03;100.00
46009;BME280;39597;51.438;7.006;2022-10-15T12:09:02;99152.69;;;15.05;100.00
46009;BME280;39597;51.438;7.006;2022-10-15T12:14:26;99152.31;;;15.14;100.00
46009;BME280;39597;51.438;7.006;2022-10-15T12:17:19;99143.72;;;15.19;100.00
46009;BME280;39597;51.438;7.006;2022-10-15T12:20:07;99143.31;;;15.17;100.00
46009;BME280;39597;51.438;7.006;2022-10-15T12:28:16;99132.75;;;15.41;100.00
46009;BME280;39597;51.438;7.006;2022-10-15T12:30:53;99130.03;;;15.55;100.00
46009;BME280;39597;51.438;7.006;2022-10-15T12:36:22;99115.19;;;15.63;100.00
46009;BME280;39597;51.438;7.006;2022-10-15T12:38:59;99127.31;;;15.76;100.00
46009;BME280;39597;51.438;7.006;2022-10-15T12:41:38;99123.78;;;15.86;100.00
46009;BME280;39597;51.438;7.006;2022-10-15T12:44:21;99122.19;;;15.92;100.00
46009;BME280;39597;51.438;7.006;2022-10-15T12:46:47;99114.75;;;16.00;100.00
46009;BME280;39597;51.438;7.006;2022-10-15T12:49:44;99115.16;;;15.99;100.00
46009;BME280;39597;51.438;7.006;2022-10-15T12:52:01;99116.69;;;16.03;100.00
46009;BME280;39597;51.438;7.006;2022-10-15T12:54:50;99111.56;;;16.09;100.00
46009;BME280;39597;51.438;7.006;2022-10-15T13:00:02;99106.44;;;16.21;100.00
46009;BME280;39597;51.438;7.006;2022-10-15T13:02:44;99117.41;;;16.25;100.00
46009;BME280;39597;51.438;7.006;2022-10-15T13:05:30;99119.75;;;16.34;100.00
46009;BME280;39597;51.438;7.006;2022-10-15T13:07:57;99113.47;;;16.37;100.00
46009;BME280;39597;51.438;7.006;2022-10-15T13:10:34;99123.69;;;16.36;100.00
46009;BME280;39597;51.438;7.006;2022-10-15T13:13:04;99120.13;;;16.46;99.91
46009;BME280;39597;51.438;7.006;2022-10-15T13:15:31;99129.53;;;16.49;100.00
46009;BME280;39597;51.438;7.006;2022-10-15T13:18:05;99135.78;;;16.46;100.00
46009;BME280;39597;51.438;7.006;2022-10-15T13:20:37;99122.84;;;16.50;100.00
46009;BME280;39597;51.438;7.006;2022-10-15T13:25:42;99120.88;;;16.54;100.00
46009;BME280;39597;51.438;7.006;2022-10-15T13:28:33;99120.44;;;16.63;99.92
46009;BME280;39597;51.438;7.006;2022-10-15T13:31:02;99115.31;;;16.75;99.72
46009;BME280;39597;51.438;7.006;2022-10-15T13:33:29;99112.50;;;16.86;98.64
46009;BME280;39597;51.438;7.006;2022-10-15T13:36:17;99113.25;;;16.90;98.38
46009;BME280;39597;51.438;7.006;2022-10-15T13:38:52;99112.03;;;17.02;98.33
46009;BME280;39597;51.438;7.006;2022-10-15T13:41:37;99121.00;;;17.09;98.06
46009;BME280;39597;51.438;7.006;2022-10-15T13:44:04;99114.28;;;17.18;97.03
46009;BME280;39597;51.438;7.006;2022-10-15T13:46:30;99115.00;;;17.25;97.03
46009;BME280;39597;51.438;7.006;2022-10-15T13:48:59;99117.72;;;17.29;96.43
46009;BME280;39597;51.438;7.006;2022-10-15T13:51:31;99126.72;;;17.36;95.86
46009;BME280;39597;51.438;7.006;2022-10-15T13:53:58;99114.53;;;17.37;95.87
46009;BME280;39597;51.438;7.006;2022-10-15T13:56:27;99112.56;;;17.38;94.95
46009;BME280;39597;51.438;7.006;2022-10-15T13:58:54;99121.56;;;17.42;94.06
46009;BME280;39597;51.438;7.006;2022-10-15T14:01:21;99102.28;;;17.45;93.53
46009;BME280;39597;51.438;7.006;2022-10-15T14:03:59;99104.25;;;17.45;93.16
46009;BME280;39597;51.438;7.006;2022-10-15T14:06:26;99113.31;;;17.42;92.99
46009;BME280;39597;51.438;7.006;2022-10-15T14:08:59;99105.44;;;17.44;93.34
46009;BME280;39597;51.438;7.006;2022-10-15T14:11:25;99101.91;;;17.43;92.96
46009;BME280;39597;51.438;7.006;2022-10-15T14:13:55;99099.94;;;17.44;92.81
46009;BME280;39597;51.438;7.006;2022-10-15T14:16:45;99101.91;;;17.47;92.58
46009;BME280;39597;51.438;7.006;2022-10-15T14:19:18;99117.63;;;17.43;93.16
46009;BME280;39597;51.438;7.006;2022-10-15T14:21:51;99117.63;;;17.43;92.64
46009;BME280;39597;51.438;7.006;2022-10-15T14:24:49;99103.50;;;17.41;92.42
46009;BME280;39597;51.438;7.006;2022-10-15T14:27:13;99118.03;;;17.41;92.59
46009;BME280;39597;51.438;7.006;2022-10-15T14:29:45;99116.09;;;17.38;92.25
46009;BME280;39597;51.438;7.006;2022-10-15T14:32:44;99112.56;;;17.38;91.95
46009;BME280;39597;51.438;7.006;2022-10-15T14:35:32;99116.06;;;17.42;91.79
46009;BME280;39597;51.438;7.006;2022-10-15T14:38:04;99113.69;;;17.44;92.33
46009;BME280;39597;51.438;7.006;2022-10-15T14:40:30;99120.38;;;17.43;92.44
46009;BME280;39597;51.438;7.006;2022-10-15T14:43:56;99122.38;;;17.39;92.76
46009;BME280;39597;51.438;7.006;2022-10-15T14:48:24;99151.53;;;17.33;93.19